createdAt,value
2022-07-28T00:01:55.883Z,40.42
2022-07-28T00:04:25.103Z,36.92
2022-07-28T00:06:54.415Z,41.38
2022-07-28T00:09:23.637Z,39.88
2022-07-28T00:11:54.925Z,38.03
2022-07-28T00:14:26.194Z,38.25
2022-07-28T00:16:55.682Z,37.75
2022-07-28T00:19:24.961Z,39.30
2022-07-28T00:21:54.299Z,36.60
2022-07-28T00:24:24.592Z,36.33
2022-07-28T00:26:53.957Z,41.55
2022-07-28T00:29:23.449Z,41.90
2022-07-28T00:31:54.423Z,41.75
2022-07-28T00:34:26.570Z,39.40
2022-07-28T00:36:56.334Z,40.05
2022-07-28T00:39:25.564Z,46.35
2022-07-28T00:41:54.836Z,44.70
2022-07-28T00:44:24.269Z,40.00
2022-07-28T00:46:55.085Z,44.45
2022-07-28T00:49:24.608Z,38.50
2022-07-28T00:51:54.369Z,39.80
2022-07-28T00:54:23.672Z,42.40
2022-07-28T00:56:53.530Z,41.35
2022-07-28T00:59:22.715Z,36.97
2022-07-28T01:01:53.212Z,39.03
2022-07-28T01:04:26.253Z,41.97
2022-07-28T01:09:54.350Z,32.22
2022-07-28T01:12:47.173Z,37.13
2022-07-28T01:15:26.773Z,33.75
2022-07-28T01:18:06.394Z,34.90
2022-07-28T01:20:43.212Z,35.65
2022-07-28T01:24:06.370Z,37.28
2022-07-28T01:26:53.048Z,36.90
2022-07-28T01:30:22.492Z,42.08
2022-07-28T01:33:02.768Z,39.05
2022-07-28T01:35:38.192Z,43.88
2022-07-28T01:38:11.674Z,45.92
2022-07-28T01:40:46.148Z,45.25
2022-07-28T01:43:24.864Z,45.10
2022-07-28T01:45:57.699Z,46.53
2022-07-28T01:48:28.925Z,45.58
2022-07-28T01:50:59.051Z,46.85
2022-07-28T01:53:32.018Z,44.25
2022-07-28T01:56:08.923Z,40.67
2022-07-28T01:58:40.148Z,40.63
2022-07-28T02:01:13.371Z,36.88
2022-07-28T02:03:45.027Z,36.70
2022-07-28T02:06:16.763Z,38.00
2022-07-28T02:08:48.560Z,37.42
2022-07-28T02:11:35.561Z,36.20
2022-07-28T02:14:05.833Z,36.28
2022-07-28T02:16:36.904Z,32.90
2022-07-28T02:19:06.967Z,33.20
2022-07-28T02:21:38.077Z,33.15
2022-07-28T02:24:09.298Z,31.88
2022-07-28T02:26:43.338Z,34.20
2022-07-28T02:29:40.413Z,31.27
2022-07-28T02:32:27.339Z,31.77
2022-07-28T02:37:38.916Z,26.30
2022-07-28T02:40:14.921Z,28.52
2022-07-28T02:42:49.220Z,30.98
2022-07-28T02:45:25.555Z,29.73
2022-07-28T02:48:03.099Z,31.10
2022-07-28T02:50:32.706Z,28.77
2022-07-28T02:53:15.509Z,33.33
2022-07-28T02:55:51.012Z,30.90
2022-07-28T02:58:23.991Z,29.75
2022-07-28T03:00:55.928Z,29.95
2022-07-28T03:03:27.180Z,30.55
2022-07-28T03:05:57.002Z,29.13
2022-07-28T03:08:26.380Z,32.45
2022-07-28T03:11:10.087Z,27.90
2022-07-28T03:13:39.959Z,27.40
2022-07-28T03:16:09.598Z,27.70
2022-07-28T03:18:40.271Z,31.17
2022-07-28T03:21:11.289Z,30.70
2022-07-28T03:23:45.229Z,30.60
2022-07-28T03:26:20.634Z,32.63
2022-07-28T03:28:52.660Z,29.50
2022-07-28T03:31:23.090Z,28.58
2022-07-28T03:33:54.007Z,29.45
2022-07-28T03:36:30.471Z,27.65
2022-07-28T03:39:04.131Z,29.80
2022-07-28T03:41:35.008Z,28.27
2022-07-28T03:44:04.891Z,27.73
2022-07-28T03:46:34.574Z,29.27
2022-07-28T03:49:09.699Z,26.98
2022-07-28T03:51:39.827Z,24.65
2022-07-28T03:54:09.212Z,25.30
2022-07-28T03:56:38.566Z,25.27
2022-07-28T03:59:07.814Z,25.83
2022-07-28T04:01:37.230Z,24.88
2022-07-28T04:04:08.387Z,26.10
2022-07-28T04:06:37.789Z,26.38
2022-07-28T04:09:07.098Z,24.25
2022-07-28T04:11:36.452Z,25.60
2022-07-28T04:14:05.898Z,25.48
2022-07-28T04:16:35.334Z,28.55
2022-07-28T04:19:04.826Z,29.40
2022-07-28T04:21:35.444Z,26.85
2022-07-28T04:24:04.737Z,28.70
2022-07-28T04:26:33.934Z,27.52
2022-07-28T04:29:03.562Z,27.10
2022-07-28T04:31:33.109Z,27.58
2022-07-28T04:34:02.536Z,25.33
2022-07-28T04:36:32.517Z,26.65
2022-07-28T04:39:03.481Z,23.95
2022-07-28T04:41:32.786Z,26.90
2022-07-28T04:44:02.018Z,25.55
2022-07-28T04:46:31.349Z,26.15
2022-07-28T04:49:00.694Z,25.05
2022-07-28T04:51:29.985Z,26.13
2022-07-28T04:53:59.254Z,25.42
2022-07-28T04:56:29.909Z,25.50
2022-07-28T04:58:59.574Z,24.23
2022-07-28T05:01:29.845Z,26.65
2022-07-28T05:03:59.186Z,26.02
2022-07-28T05:06:28.568Z,23.63
2022-07-28T05:08:58.344Z,22.52
2022-07-28T05:11:29.165Z,26.38
2022-07-28T05:13:58.526Z,25.30
2022-07-28T05:16:27.803Z,25.20
2022-07-28T05:18:57.364Z,26.27
2022-07-28T05:21:26.726Z,25.88
2022-07-28T05:23:56.244Z,26.83
2022-07-28T05:26:27.012Z,27.83
2022-07-28T05:29:00.060Z,29.50
2022-07-28T05:31:29.593Z,28.65
2022-07-28T05:33:58.947Z,29.20
2022-07-28T05:36:31.049Z,28.95
2022-07-28T05:39:00.389Z,29.08
2022-07-28T05:41:29.986Z,30.67
2022-07-28T05:44:01.823Z,28.88
2022-07-28T05:46:31.109Z,29.10
2022-07-28T05:49:00.825Z,28.02
2022-07-28T05:51:30.087Z,31.73
2022-07-28T05:53:59.286Z,29.70
2022-07-28T05:56:28.958Z,31.83
2022-07-28T05:59:00.187Z,28.48
2022-07-28T06:01:29.484Z,29.77
2022-07-28T06:04:25.911Z,27.08
2022-07-28T06:06:48.722Z,28.17
2022-07-28T06:09:17.977Z,28.77
2022-07-28T06:11:47.248Z,30.33
2022-07-28T06:14:18.316Z,32.33
2022-07-28T06:16:51.320Z,30.23
2022-07-28T06:19:20.903Z,32.55
2022-07-28T06:21:52.630Z,36.60
2022-07-28T06:24:21.871Z,33.47
2022-07-28T06:26:52.843Z,35.53
2022-07-28T06:29:24.625Z,35.58
2022-07-28T06:31:53.888Z,33.73
2022-07-28T06:34:23.205Z,34.13
2022-07-28T06:36:53.081Z,36.92
2022-07-28T06:39:22.270Z,34.45
2022-07-28T06:41:51.753Z,35.92
2022-07-28T06:44:23.747Z,34.08
2022-07-28T06:46:54.193Z,37.72
2022-07-28T06:49:23.675Z,35.85
2022-07-28T06:51:52.995Z,42.33
2022-07-28T06:54:22.250Z,38.38
2022-07-28T06:56:52.331Z,37.92
2022-07-28T06:59:23.511Z,36.47
2022-07-28T07:01:52.776Z,35.10
2022-07-28T07:04:22.089Z,33.55
2022-07-28T07:06:51.395Z,32.35
2022-07-28T07:09:20.676Z,35.80
2022-07-28T07:11:50.154Z,37.03
2022-07-28T07:14:19.619Z,37.22
2022-07-28T07:16:50.879Z,38.45
2022-07-28T07:19:20.808Z,35.22
2022-07-28T07:21:50.630Z,38.60
2022-07-28T07:24:20.325Z,36.63
2022-07-28T07:26:51.712Z,37.72
2022-07-28T07:29:23.004Z,34.17
2022-07-28T07:31:53.847Z,33.58
2022-07-28T07:34:23.117Z,37.33
2022-07-28T07:36:52.693Z,36.53
2022-07-28T07:39:21.945Z,35.95
2022-07-28T07:41:51.509Z,33.75
2022-07-28T07:44:20.771Z,36.33
2022-07-28T07:46:50.271Z,35.88
2022-07-28T07:49:20.983Z,36.03
2022-07-28T07:51:50.405Z,32.78
2022-07-28T07:54:20.603Z,33.97
2022-07-28T07:56:49.774Z,34.05
2022-07-28T07:59:18.912Z,35.33
2022-07-28T08:01:54.363Z,33.88
2022-07-28T08:04:26.284Z,34.10
2022-07-28T08:06:58.274Z,37.22
2022-07-28T08:09:27.933Z,36.03
2022-07-28T08:11:57.242Z,33.25
2022-07-28T08:14:26.592Z,34.53
2022-07-28T08:16:56.862Z,38.85
2022-07-28T08:19:28.014Z,36.03
2022-07-28T08:21:57.382Z,37.70
2022-07-28T08:24:27.686Z,40.97
2022-07-28T08:27:02.626Z,40.17
2022-07-28T08:29:32.097Z,41.05
2022-07-28T08:32:03.898Z,41.47
2022-07-28T08:34:35.586Z,40.90
2022-07-28T08:37:07.322Z,39.60
2022-07-28T08:39:37.572Z,36.35
2022-07-28T08:42:10.383Z,37.42
2022-07-28T08:47:18.898Z,34.25
2022-07-28T08:49:51.330Z,40.63
2022-07-28T08:54:52.311Z,36.92
2022-07-28T08:57:27.662Z,44.22
2022-07-28T08:59:57.235Z,38.58
2022-07-28T09:02:29.243Z,40.85
2022-07-28T09:05:01.022Z,38.90
2022-07-28T09:07:30.454Z,45.03
2022-07-28T09:10:02.726Z,43.88
2022-07-28T09:15:03.251Z,37.88
2022-07-28T09:17:33.815Z,43.85
2022-07-28T09:20:10.417Z,43.25
2022-07-28T09:23:00.215Z,44.17
2022-07-28T09:25:30.879Z,43.65
2022-07-28T09:28:09.818Z,39.47
2022-07-28T09:30:53.640Z,40.55
2022-07-28T09:33:41.956Z,43.70
2022-07-28T09:36:17.482Z,41.58
2022-07-28T09:38:46.986Z,45.60
2022-07-28T09:41:19.163Z,39.70
2022-07-28T09:46:29.240Z,33.08
2022-07-28T09:49:02.496Z,38.05
2022-07-28T09:51:34.381Z,39.83
2022-07-28T09:54:13.763Z,36.08
2022-07-28T09:56:46.347Z,41.80
2022-07-28T09:59:18.243Z,49.70
2022-07-28T10:01:56.707Z,34.88
2022-07-28T10:04:44.486Z,40.00
2022-07-28T10:07:17.409Z,38.63
2022-07-28T10:09:58.805Z,67.00
2022-07-28T10:12:30.727Z,64.72
2022-07-28T10:15:32.581Z,78.72
2022-07-28T10:18:02.070Z,64.00
2022-07-28T10:20:32.885Z,88.15
2022-07-28T10:23:06.507Z,97.32
2022-07-28T10:25:36.862Z,74.95
2022-07-28T10:28:07.082Z,89.55
2022-07-28T10:30:41.481Z,85.65
2022-07-28T10:33:17.351Z,86.68
2022-07-28T10:35:55.234Z,77.40
2022-07-28T10:38:31.548Z,77.18
2022-07-28T10:41:03.836Z,80.60
2022-07-28T10:43:33.613Z,69.25
2022-07-28T10:46:07.346Z,74.68
2022-07-28T10:48:39.192Z,74.93
2022-07-28T10:51:09.368Z,72.97
2022-07-28T10:53:48.228Z,76.40
2022-07-28T10:56:25.384Z,63.10
2022-07-28T10:59:07.591Z,92.47
2022-07-28T11:01:53.863Z,99.70
2022-07-28T11:04:55.500Z,80.15
2022-07-28T11:07:24.927Z,78.95
2022-07-28T11:10:15.460Z,85.05
2022-07-28T11:12:49.581Z,92.10
2022-07-28T11:15:35.153Z,96.78
2022-07-28T11:18:10.906Z,104.75
2022-07-28T11:21:11.566Z,93.63
2022-07-28T11:23:56.236Z,94.78
2022-07-28T11:26:38.529Z,75.38
2022-07-28T11:29:23.936Z,103.15
2022-07-28T11:32:03.494Z,80.75
2022-07-28T11:35:15.547Z,81.82
2022-07-28T11:38:13.320Z,65.22
2022-07-28T11:40:46.013Z,51.63
2022-07-28T11:43:43.791Z,92.22
2022-07-28T11:46:25.050Z,68.47
2022-07-28T11:49:25.237Z,49.05
2022-07-28T11:52:24.669Z,43.10
2022-07-28T11:54:58.545Z,66.25
2022-07-28T11:57:28.862Z,63.42
2022-07-28T12:00:02.848Z,61.63
2022-07-28T12:02:36.405Z,50.10
2022-07-28T12:05:13.097Z,69.38
2022-07-28T12:07:51.845Z,63.38
2022-07-28T12:13:28.867Z,57.67
2022-07-28T12:15:59.732Z,43.28
2022-07-28T12:18:29.765Z,58.90
2022-07-28T12:21:04.946Z,59.92
2022-07-28T12:23:38.942Z,84.18
2022-07-28T12:26:31.217Z,50.20
2022-07-28T12:29:01.394Z,60.10
2022-07-28T12:31:33.428Z,62.67
2022-07-28T12:36:32.239Z,48.33
2022-07-28T12:39:01.885Z,57.67
2022-07-28T12:41:35.309Z,70.18
2022-07-28T12:44:06.903Z,67.75
2022-07-28T12:46:38.032Z,61.83
2022-07-28T12:49:22.741Z,71.20
2022-07-28T12:51:52.241Z,43.13
2022-07-28T12:54:37.087Z,48.22
2022-07-28T12:57:06.645Z,44.47
2022-07-28T12:59:38.440Z,48.45
2022-07-28T13:02:09.590Z,62.10
2022-07-28T13:04:42.685Z,62.50
2022-07-28T13:07:14.823Z,52.03
2022-07-28T13:09:53.202Z,60.20
2022-07-28T13:12:31.652Z,67.55
2022-07-28T13:15:02.908Z,79.80
2022-07-28T13:17:52.575Z,76.47
2022-07-28T13:20:24.586Z,83.78
2022-07-28T13:22:54.972Z,83.13
2022-07-28T13:25:24.523Z,85.10
2022-07-28T13:27:55.553Z,81.60
2022-07-28T13:30:25.484Z,94.07
2022-07-28T13:32:56.831Z,87.38
2022-07-28T13:35:26.329Z,77.90
2022-07-28T13:37:55.489Z,76.70
2022-07-28T13:40:24.895Z,85.18
2022-07-28T13:42:56.843Z,79.70
2022-07-28T13:48:01.387Z,81.28
2022-07-28T13:50:30.828Z,75.50
2022-07-28T13:53:00.033Z,81.50
2022-07-28T13:55:30.939Z,78.25
2022-07-28T13:58:00.609Z,87.20
2022-07-28T14:00:31.165Z,85.78
2022-07-28T14:03:02.378Z,83.25
2022-07-28T14:05:32.542Z,68.60
2022-07-28T14:08:03.085Z,77.43
2022-07-28T14:10:32.492Z,72.82
2022-07-28T14:13:01.990Z,74.80
2022-07-28T14:15:31.335Z,88.07
2022-07-28T14:18:01.957Z,85.35
2022-07-28T14:20:31.413Z,102.50
2022-07-28T14:23:01.782Z,82.75
2022-07-28T14:25:48.221Z,92.47
2022-07-28T14:28:18.674Z,81.63
2022-07-28T14:30:47.849Z,81.15
2022-07-28T14:33:19.486Z,82.28
2022-07-28T14:35:48.961Z,66.60
2022-07-28T14:41:07.378Z,72.07
2022-07-28T14:43:36.643Z,82.63
2022-07-28T14:46:16.353Z,61.97
2022-07-28T14:48:52.282Z,73.80
2022-07-28T14:51:21.577Z,76.55
2022-07-28T14:53:52.108Z,78.93
2022-07-28T14:56:21.564Z,72.00
2022-07-28T14:58:50.840Z,60.22
2022-07-28T15:01:20.148Z,67.20
2022-07-28T15:03:49.423Z,83.93
2022-07-28T15:06:19.959Z,67.53
2022-07-28T15:08:49.271Z,67.45
2022-07-28T15:11:18.503Z,76.22
2022-07-28T15:13:47.757Z,74.38
2022-07-28T15:16:17.532Z,68.30
2022-07-28T15:18:46.750Z,76.28
2022-07-28T15:21:17.336Z,70.75
2022-07-28T15:23:48.580Z,70.95
2022-07-28T15:26:17.846Z,65.20
2022-07-28T15:28:48.645Z,49.22
2022-07-28T15:31:19.860Z,58.22
2022-07-28T15:33:54.876Z,61.97
2022-07-28T15:36:27.778Z,64.40
2022-07-28T15:38:58.365Z,49.05
2022-07-28T15:41:28.565Z,61.30
2022-07-28T15:43:57.854Z,61.03
2022-07-28T15:46:27.408Z,75.57
2022-07-28T15:48:57.059Z,60.95
2022-07-28T15:51:27.094Z,71.82
2022-07-28T15:54:00.996Z,67.50
2022-07-28T15:56:31.763Z,62.28
2022-07-28T15:59:02.088Z,67.40
2022-07-28T16:01:31.519Z,84.32
2022-07-28T16:04:02.212Z,68.38
2022-07-28T16:06:45.989Z,68.65
2022-07-28T16:09:16.751Z,74.82
2022-07-28T16:11:46.094Z,64.65
2022-07-28T16:14:15.757Z,77.95
2022-07-28T16:16:45.543Z,73.55
2022-07-28T16:19:46.158Z,82.63
2022-07-28T16:22:05.209Z,73.00
2022-07-28T16:24:35.841Z,68.78
2022-07-28T16:27:05.322Z,76.30
2022-07-28T16:29:35.670Z,75.18
2022-07-28T16:32:07.913Z,69.25
2022-07-28T16:34:37.124Z,69.97
2022-07-28T16:37:06.551Z,67.22
2022-07-28T16:39:37.228Z,63.42
2022-07-28T16:42:07.478Z,66.07
2022-07-28T16:44:37.752Z,62.33
2022-07-28T16:47:07.250Z,68.18
2022-07-28T16:49:38.051Z,63.20
2022-07-28T16:52:10.264Z,63.22
2022-07-28T16:54:40.943Z,61.38
2022-07-28T16:57:10.294Z,64.55
2022-07-28T16:59:47.937Z,67.13
2022-07-28T17:02:19.247Z,62.08
2022-07-28T17:04:48.966Z,69.43
2022-07-28T17:07:18.595Z,67.30
2022-07-28T17:09:49.210Z,66.65
2022-07-28T17:12:18.492Z,56.08
2022-07-28T17:14:48.052Z,60.42
2022-07-28T17:17:17.319Z,48.67
2022-07-28T17:19:48.112Z,52.85
2022-07-28T17:22:18.361Z,49.35
2022-07-28T17:24:49.460Z,48.72
2022-07-28T17:30:10.128Z,44.15
2022-07-28T17:32:39.463Z,49.13
2022-07-28T17:35:34.611Z,49.58
2022-07-28T17:38:01.456Z,49.58
2022-07-28T17:40:32.690Z,51.20
2022-07-28T17:43:01.987Z,49.20
2022-07-28T17:45:31.496Z,47.38
2022-07-28T17:48:00.904Z,55.72
2022-07-28T17:50:30.992Z,54.67
2022-07-28T17:53:01.821Z,52.38
2022-07-28T17:55:39.199Z,50.63
2022-07-28T17:58:29.300Z,45.28
2022-07-28T18:01:10.946Z,53.08
2022-07-28T18:03:57.608Z,57.35
2022-07-28T18:06:32.868Z,51.17
2022-07-28T18:11:57.332Z,40.88
2022-07-28T18:14:29.987Z,43.97
2022-07-28T18:17:00.293Z,53.90
2022-07-28T18:19:30.878Z,52.72
2022-07-28T18:22:00.252Z,59.78
2022-07-28T18:24:29.881Z,58.88
2022-07-28T18:27:00.598Z,58.67
2022-07-28T18:29:38.203Z,60.20
2022-07-28T18:32:09.918Z,55.28
2022-07-28T18:34:41.348Z,65.38
2022-07-28T18:37:10.735Z,52.03
2022-07-28T18:39:40.280Z,59.67
2022-07-28T18:42:11.929Z,57.15
2022-07-28T18:44:41.475Z,56.37
2022-07-28T18:47:11.081Z,55.83
2022-07-28T18:49:40.587Z,54.55
2022-07-28T18:52:10.485Z,54.22
2022-07-28T18:54:39.788Z,57.40
2022-07-28T18:57:10.604Z,62.10
2022-07-28T18:59:44.582Z,61.60
2022-07-28T19:02:16.209Z,59.47
2022-07-28T19:04:47.215Z,58.08
2022-07-28T19:07:17.225Z,70.25
2022-07-28T19:09:46.514Z,60.45
2022-07-28T19:12:20.148Z,55.08
2022-07-28T19:14:49.422Z,55.88
2022-07-28T19:17:20.745Z,55.92
2022-07-28T19:19:56.160Z,60.63
2022-07-28T19:22:25.688Z,54.92
2022-07-28T19:24:55.325Z,59.95
2022-07-28T19:27:26.067Z,60.35
2022-07-28T19:30:00.110Z,55.30
2022-07-28T19:32:29.365Z,58.08
2022-07-28T19:34:59.402Z,55.78
2022-07-28T19:37:28.943Z,56.65
2022-07-28T19:39:58.139Z,57.00
2022-07-28T19:42:31.543Z,51.35
2022-07-28T19:45:01.744Z,54.15
2022-07-28T19:47:31.271Z,52.53
2022-07-28T19:50:00.752Z,53.30
2022-07-28T19:52:30.314Z,52.13
2022-07-28T19:55:00.471Z,45.95
2022-07-28T19:57:31.102Z,44.85
2022-07-28T20:00:02.203Z,45.78
2022-07-28T20:02:41.284Z,40.92
2022-07-28T20:05:11.907Z,41.55
2022-07-28T20:07:41.357Z,43.30
2022-07-28T20:10:11.197Z,45.97
2022-07-28T20:12:42.508Z,42.83
2022-07-28T20:15:13.160Z,42.05
2022-07-28T20:17:42.828Z,43.67
2022-07-28T20:20:14.727Z,46.58
2022-07-28T20:22:44.568Z,43.15
2022-07-28T20:25:14.777Z,47.90
2022-07-28T20:27:45.963Z,48.40
2022-07-28T20:30:15.537Z,50.75
2022-07-28T20:32:45.544Z,52.58
2022-07-28T20:35:15.338Z,51.83
2022-07-28T20:37:45.205Z,52.78
2022-07-28T20:40:14.597Z,51.97
2022-07-28T20:42:49.808Z,52.47
2022-07-28T20:45:22.950Z,53.10
2022-07-28T20:47:52.583Z,50.42
2022-07-28T20:50:22.141Z,53.90
2022-07-28T20:52:51.925Z,52.92
2022-07-28T20:55:21.932Z,51.08
2022-07-28T20:57:55.953Z,50.00
2022-07-28T21:00:26.653Z,54.10
2022-07-28T21:02:56.099Z,56.38
2022-07-28T21:05:35.059Z,53.28
2022-07-28T21:08:09.546Z,56.13
2022-07-28T21:10:46.671Z,55.58
2022-07-28T21:13:18.744Z,55.42
2022-07-28T21:15:48.203Z,59.33
2022-07-28T21:18:18.556Z,57.67
2022-07-28T21:20:48.012Z,57.03
2022-07-28T21:23:19.171Z,57.72
2022-07-28T21:25:51.412Z,57.50
2022-07-28T21:28:39.502Z,52.30
2022-07-28T21:31:09.978Z,51.45
2022-07-28T21:33:39.445Z,54.42
2022-07-28T21:36:09.665Z,57.47
2022-07-28T21:38:39.625Z,53.83
2022-07-28T21:41:09.016Z,54.60
2022-07-28T21:43:40.123Z,51.80
2022-07-28T21:46:11.797Z,50.40
2022-07-28T21:48:41.356Z,50.88
2022-07-28T21:51:18.248Z,49.63
2022-07-28T21:53:52.705Z,50.22
2022-07-28T21:56:22.242Z,53.33
2022-07-28T21:58:53.275Z,52.55
2022-07-28T22:01:24.015Z,54.03
2022-07-28T22:03:53.358Z,57.17
2022-07-28T22:06:23.217Z,53.08
2022-07-28T22:08:54.683Z,54.17
2022-07-28T22:11:24.270Z,56.40
2022-07-28T22:13:55.062Z,54.53
2022-07-28T22:16:24.443Z,55.67
2022-07-28T22:18:53.832Z,59.50
2022-07-28T22:21:23.137Z,57.88
2022-07-28T22:23:52.678Z,57.00
2022-07-28T22:26:21.970Z,52.33
2022-07-28T22:28:51.434Z,55.13
2022-07-28T22:31:22.444Z,54.08
2022-07-28T22:33:52.136Z,54.15
2022-07-28T22:36:21.549Z,52.67
2022-07-28T22:38:50.966Z,53.10
2022-07-28T22:41:20.306Z,53.88
2022-07-28T22:43:49.722Z,51.33
2022-07-28T22:46:19.272Z,50.83
2022-07-28T22:48:50.539Z,53.70
2022-07-28T22:51:19.963Z,52.58
2022-07-28T22:53:49.542Z,51.67
2022-07-28T22:56:19.763Z,51.20
2022-07-28T22:58:49.229Z,54.65
2022-07-28T23:01:18.873Z,52.50
2022-07-28T23:03:49.855Z,53.38
2022-07-28T23:06:20.334Z,50.28
2022-07-28T23:08:49.988Z,52.55
2022-07-28T23:11:19.352Z,50.80
2022-07-28T23:13:48.773Z,51.72
2022-07-28T23:16:18.325Z,49.17
2022-07-28T23:18:47.758Z,52.63
2022-07-28T23:21:18.434Z,46.20
2022-07-28T23:23:47.954Z,48.72
2022-07-28T23:26:17.413Z,52.25
2022-07-28T23:28:46.734Z,49.42
2022-07-28T23:31:16.137Z,50.25
2022-07-28T23:33:55.021Z,51.08
2022-07-28T23:36:28.317Z,48.10
2022-07-28T23:38:59.604Z,62.35
2022-07-28T23:41:29.293Z,58.75
2022-07-28T23:43:58.729Z,48.17
2022-07-28T23:46:28.119Z,47.60
2022-07-28T23:48:57.716Z,48.55
2022-07-28T23:51:47.179Z,46.13
2022-07-28T23:54:18.170Z,47.20
2022-07-28T23:56:48.101Z,44.55
2022-07-28T23:59:17.789Z,50.13
